sensor_id;sensor_type;location;lat;lon;timestamp;pressure;altitude;pressure_sealevel;temperature;humidity
56594;BME280;42474;51.660;5.824;2023-03-20T00:10:43;101920.0;;;9.9;79.0
56594;BME280;42474;51.660;5.824;2023-03-20T00:15:38;101910.0;;;9.8;79.0
56594;BME280;42474;51.660;5.824;2023-03-20T00:20:34;101910.0;;;9.8;79.0
56594;BME280;42474;51.660;5.824;2023-03-20T00:25:34;101910.0;;;9.8;79.0
56594;BME280;42474;51.660;5.824;2023-03-20T00:30:34;101910.0;;;9.8;79.0
56594;BME280;42474;51.660;5.824;2023-03-20T00:35:34;101910.0;;;9.8;79.0
56594;BME280;42474;51.660;5.824;2023-03-20T00:40:34;101900.0;;;9.8;79.5
56594;BME280;42474;51.660;5.824;2023-03-20T00:45:34;101900.0;;;9.8;79.5
56594;BME280;42474;51.660;5.824;2023-03-20T00:50:34;101900.0;;;9.8;79.5
56594;BME280;42474;51.660;5.824;2023-03-20T00:55:34;101880.0;;;9.7;79.5
56594;BME280;42474;51.660;5.824;2023-03-20T01:00:39;101880.0;;;9.7;80.0
56594;BME280;42474;51.660;5.824;2023-03-20T01:05:34;101880.0;;;9.7;79.5
56594;BME280;42474;51.660;5.824;2023-03-20T01:10:34;101870.0;;;9.7;80.0
56594;BME280;42474;51.660;5.824;2023-03-20T01:15:34;101880.0;;;9.7;80.0
56594;BME280;42474;51.660;5.824;2023-03-20T01:20:34;101900.0;;;9.7;80.0
56594;BME280;42474;51.660;5.824;2023-03-20T01:25:34;101920.0;;;9.7;80.0
56594;BME280;42474;51.660;5.824;2023-03-20T01:30:34;101920.0;;;9.6;80.0
56594;BME280;42474;51.660;5.824;2023-03-20T01:35:34;101920.0;;;9.6;80.0
56594;BME280;42474;51.660;5.824;2023-03-20T01:40:42;101920.0;;;9.6;80.0
56594;BME280;42474;51.660;5.824;2023-03-20T01:45:35;101930.0;;;9.6;80.0
56594;BME280;42474;51.660;5.824;2023-03-20T01:50:34;101920.0;;;9.6;80.0
56594;BME280;42474;51.660;5.824;2023-03-20T01:55:37;101920.0;;;9.6;80.0
56594;BME280;42474;51.660;5.824;2023-03-20T02:00:34;101930.0;;;9.6;80.0
56594;BME280;42474;51.660;5.824;2023-03-20T02:05:35;101920.0;;;9.5;80.0
56594;BME280;42474;51.660;5.824;2023-03-20T02:10:34;101920.0;;;9.4;80.0
56594;BME280;42474;51.660;5.824;2023-03-20T02:15:34;101900.0;;;9.3;80.0
56594;BME280;42474;51.660;5.824;2023-03-20T02:21:07;101910.0;;;9.3;80.0
56594;BME280;42474;51.660;5.824;2023-03-20T02:28:20;101900.0;;;9.1;79.5
56594;BME280;42474;51.660;5.824;2023-03-20T02:37:59;101900.0;;;9.0;79.5
56594;BME280;42474;51.660;5.824;2023-03-20T02:42:14;101920.0;;;8.9;80.0
56594;BME280;42474;51.660;5.824;2023-03-20T02:47:22;101920.0;;;8.8;80.0
56594;BME280;42474;51.660;5.824;2023-03-20T02:52:01;101920.0;;;8.7;80.0
56594;BME280;42474;51.660;5.824;2023-03-20T02:56:34;101930.0;;;8.7;80.5
56594;BME280;42474;51.660;5.824;2023-03-20T03:01:02;101920.0;;;8.6;80.5
56594;BME280;42474;51.660;5.824;2023-03-20T03:04:23;101910.0;;;8.6;80.5
56594;BME280;42474;51.660;5.824;2023-03-20T03:07:13;101900.0;;;8.5;80.5
56594;BME280;42474;51.660;5.824;2023-03-20T03:10:35;101890.0;;;8.5;80.5
56594;BME280;42474;51.660;5.824;2023-03-20T03:15:38;101910.0;;;8.5;81.0
56594;BME280;42474;51.660;5.824;2023-03-20T03:20:37;101900.0;;;8.4;81.0
56594;BME280;42474;51.660;5.824;2023-03-20T03:25:37;101900.0;;;8.4;81.0
56594;BME280;42474;51.660;5.824;2023-03-20T03:30:39;101880.0;;;8.4;81.0
56594;BME280;42474;51.660;5.824;2023-03-20T03:35:34;101880.0;;;8.3;81.0
56594;BME280;42474;51.660;5.824;2023-03-20T03:40:48;101850.0;;;8.3;81.0
56594;BME280;42474;51.660;5.824;2023-03-20T03:45:42;101850.0;;;8.3;81.0
56594;BME280;42474;51.660;5.824;2023-03-20T03:50:38;101860.0;;;8.3;81.5
56594;BME280;42474;51.660;5.824;2023-03-20T03:55:38;101860.0;;;8.3;81.5
56594;BME280;42474;51.660;5.824;2023-03-20T04:00:34;101850.0;;;8.3;81.5
56594;BME280;42474;51.660;5.824;2023-03-20T04:05:36;101850.0;;;8.2;81.5
56594;BME280;42474;51.660;5.824;2023-03-20T04:15:34;101850.0;;;8.1;81.0
56594;BME280;42474;51.660;5.824;2023-03-20T04:20:34;101850.0;;;8.1;81.5
56594;BME280;42474;51.660;5.824;2023-03-20T04:25:34;101850.0;;;8.0;81.5
56594;BME280;42474;51.660;5.824;2023-03-20T04:35:34;101840.0;;;8.0;81.5
56594;BME280;42474;51.660;5.824;2023-03-20T04:45:34;101840.0;;;7.9;81.5
56594;BME280;42474;51.660;5.824;2023-03-20T04:50:34;101840.0;;;7.9;81.5
56594;BME280;42474;51.660;5.824;2023-03-20T04:55:34;101820.0;;;7.8;81.5
56594;BME280;42474;51.660;5.824;2023-03-20T05:00:34;101820.0;;;7.8;81.5
56594;BME280;42474;51.660;5.824;2023-03-20T05:05:34;101840.0;;;7.8;81.5
56594;BME280;42474;51.660;5.824;2023-03-20T05:10:34;101830.0;;;7.8;82.0
56594;BME280;42474;51.660;5.824;2023-03-20T05:15:34;101840.0;;;7.8;82.0
56594;BME280;42474;51.660;5.824;2023-03-20T05:20:34;101840.0;;;7.8;82.0
56594;BME280;42474;51.660;5.824;2023-03-20T05:25:34;101840.0;;;7.8;82.0
56594;BME280;42474;51.660;5.824;2023-03-20T05:30:34;101830.0;;;7.8;82.0
56594;BME280;42474;51.660;5.824;2023-03-20T05:35:34;101840.0;;;7.9;82.0
56594;BME280;42474;51.660;5.824;2023-03-20T05:40:34;101830.0;;;7.9;82.0
56594;BME280;42474;51.660;5.824;2023-03-20T05:45:34;101830.0;;;7.9;82.0
56594;BME280;42474;51.660;5.824;2023-03-20T05:50:34;101830.0;;;7.8;81.5
56594;BME280;42474;51.660;5.824;2023-03-20T05:55:34;101840.0;;;7.9;81.5
56594;BME280;42474;51.660;5.824;2023-03-20T06:00:34;101850.0;;;7.9;81.5
56594;BME280;42474;51.660;5.824;2023-03-20T06:05:35;101850.0;;;7.9;81.5
56594;BME280;42474;51.660;5.824;2023-03-20T06:10:34;101860.0;;;7.9;81.5
56594;BME280;42474;51.660;5.824;2023-03-20T06:15:34;101860.0;;;8.0;81.5
56594;BME280;42474;51.660;5.824;2023-03-20T06:20:34;101860.0;;;8.0;81.5
56594;BME280;42474;51.660;5.824;2023-03-20T06:25:34;101870.0;;;8.0;81.5
56594;BME280;42474;51.660;5.824;2023-03-20T06:30:34;101870.0;;;8.1;81.5
56594;BME280;42474;51.660;5.824;2023-03-20T06:35:34;101870.0;;;8.1;81.5
56594;BME280;42474;51.660;5.824;2023-03-20T06:40:34;101880.0;;;8.2;81.5
56594;BME280;42474;51.660;5.824;2023-03-20T06:45:34;101880.0;;;8.3;81.0
56594;BME280;42474;51.660;5.824;2023-03-20T06:50:34;101880.0;;;8.4;81.0
56594;BME280;42474;51.660;5.824;2023-03-20T06:55:35;101890.0;;;8.5;81.0
56594;BME280;42474;51.660;5.824;2023-03-20T07:00:34;101880.0;;;8.6;80.5
56594;BME280;42474;51.660;5.824;2023-03-20T07:05:34;101890.0;;;8.6;80.5
56594;BME280;42474;51.660;5.824;2023-03-20T07:10:34;101890.0;;;8.6;80.0
56594;BME280;42474;51.660;5.824;2023-03-20T07:15:34;101900.0;;;8.7;80.0
56594;BME280;42474;51.660;5.824;2023-03-20T07:20:34;101900.0;;;8.7;80.0
56594;BME280;42474;51.660;5.824;2023-03-20T07:25:35;101900.0;;;8.8;80.0
56594;BME280;42474;51.660;5.824;2023-03-20T07:30:34;101910.0;;;8.9;80.0
56594;BME280;42474;51.660;5.824;2023-03-20T07:35:34;101910.0;;;8.9;80.0
56594;BME280;42474;51.660;5.824;2023-03-20T07:40:34;101910.0;;;9.0;79.5
56594;BME280;42474;51.660;5.824;2023-03-20T07:45:34;101910.0;;;9.1;79.5
56594;BME280;42474;51.660;5.824;2023-03-20T07:50:34;101910.0;;;9.1;79.5
56594;BME280;42474;51.660;5.824;2023-03-20T07:55:34;101910.0;;;9.2;79.0
56594;BME280;42474;51.660;5.824;2023-03-20T08:00:34;101910.0;;;9.3;79.0
56594;BME280;42474;51.660;5.824;2023-03-20T08:05:34;101910.0;;;9.4;79.0
56594;BME280;42474;51.660;5.824;2023-03-20T08:10:34;101910.0;;;9.4;78.5
56594;BME280;42474;51.660;5.824;2023-03-20T08:15:34;101910.0;;;9.5;78.5
56594;BME280;42474;51.660;5.824;2023-03-20T08:20:34;101910.0;;;9.5;78.0
56594;BME280;42474;51.660;5.824;2023-03-20T08:25:34;101910.0;;;9.5;78.0
56594;BME280;42474;51.660;5.824;2023-03-20T08:30:34;101920.0;;;9.5;77.5
56594;BME280;42474;51.660;5.824;2023-03-20T08:35:34;101900.0;;;9.6;77.5
56594;BME280;42474;51.660;5.824;2023-03-20T08:40:34;101910.0;;;9.6;77.0
56594;BME280;42474;51.660;5.824;2023-03-20T08:45:34;101900.0;;;9.7;77.0
56594;BME280;42474;51.660;5.824;2023-03-20T08:50:34;101910.0;;;9.7;77.0
56594;BME280;42474;51.660;5.824;2023-03-20T08:55:34;101900.0;;;9.9;77.0
56594;BME280;42474;51.660;5.824;2023-03-20T09:00:34;101910.0;;;10.0;76.5
56594;BME280;42474;51.660;5.824;2023-03-20T09:05:35;101890.0;;;10.0;75.5
56594;BME280;42474;51.660;5.824;2023-03-20T09:10:34;101900.0;;;10.0;75.0
56594;BME280;42474;51.660;5.824;2023-03-20T09:15:35;101890.0;;;10.0;75.0
56594;BME280;42474;51.660;5.824;2023-03-20T09:20:34;101890.0;;;10.0;75.0
56594;BME280;42474;51.660;5.824;2023-03-20T09:25:34;101890.0;;;10.1;75.0
56594;BME280;42474;51.660;5.824;2023-03-20T09:30:34;101900.0;;;10.2;75.0
56594;BME280;42474;51.660;5.824;2023-03-20T09:35:34;101910.0;;;10.2;75.0
56594;BME280;42474;51.660;5.824;2023-03-20T09:40:50;101900.0;;;10.1;74.5
56594;BME280;42474;51.660;5.824;2023-03-20T09:46:07;101910.0;;;10.2;74.5
56594;BME280;42474;51.660;5.824;2023-03-20T09:50:51;101920.0;;;10.2;75.0
56594;BME280;42474;51.660;5.824;2023-03-20T09:55:36;101930.0;;;10.3;75.5
56594;BME280;42474;51.660;5.824;2023-03-20T10:00:34;101920.0;;;10.3;75.5
56594;BME280;42474;51.660;5.824;2023-03-20T10:05:37;101920.0;;;10.3;75.0
56594;BME280;42474;51.660;5.824;2023-03-20T10:11:01;101930.0;;;10.3;75.0
56594;BME280;42474;51.660;5.824;2023-03-20T10:16:16;101930.0;;;10.2;75.0
56594;BME280;42474;51.660;5.824;2023-03-20T10:20:41;101930.0;;;10.2;75.0
56594;BME280;42474;51.660;5.824;2023-03-20T10:25:39;101920.0;;;10.3;75.0
56594;BME280;42474;51.660;5.824;2023-03-20T10:30:51;101910.0;;;10.5;74.5
56594;BME280;42474;51.660;5.824;2023-03-20T10:35:42;101910.0;;;10.6;74.5
56594;BME280;42474;51.660;5.824;2023-03-20T10:40:41;101910.0;;;10.7;74.0
56594;BME280;42474;51.660;5.824;2023-03-20T10:45:44;101900.0;;;10.8;74.0
56594;BME280;42474;51.660;5.824;2023-03-20T10:50:40;101900.0;;;11.1;74.5
56594;BME280;42474;51.660;5.824;2023-03-20T10:55:42;101890.0;;;11.2;74.0
56594;BME280;42474;51.660;5.824;2023-03-20T11:00:34;101900.0;;;11.1;72.5
56594;BME280;42474;51.660;5.824;2023-03-20T11:05:38;101890.0;;;10.9;73.0
56594;BME280;42474;51.660;5.824;2023-03-20T11:10:36;101900.0;;;10.8;73.5
56594;BME280;42474;51.660;5.824;2023-03-20T11:15:34;101900.0;;;10.8;73.5
56594;BME280;42474;51.660;5.824;2023-03-20T11:20:43;101890.0;;;10.9;74.0
56594;BME280;42474;51.660;5.824;2023-03-20T11:25:37;101880.0;;;10.9;74.0
56594;BME280;42474;51.660;5.824;2023-03-20T11:30:38;101880.0;;;11.0;74.5
56594;BME280;42474;51.660;5.824;2023-03-20T11:35:34;101870.0;;;11.0;73.5
56594;BME280;42474;51.660;5.824;2023-03-20T11:40:34;101880.0;;;11.1;74.0
56594;BME280;42474;51.660;5.824;2023-03-20T11:45:36;101870.0;;;11.1;74.5
56594;BME280;42474;51.660;5.824;2023-03-20T11:50:45;101860.0;;;11.2;74.5
56594;BME280;42474;51.660;5.824;2023-03-20T11:55:34;101860.0;;;11.3;74.0
56594;BME280;42474;51.660;5.824;2023-03-20T12:00:38;101860.0;;;11.3;73.5
56594;BME280;42474;51.660;5.824;2023-03-20T12:05:36;101860.0;;;11.3;73.0
56594;BME280;42474;51.660;5.824;2023-03-20T12:10:38;101840.0;;;11.4;73.5
56594;BME280;42474;51.660;5.824;2023-03-20T12:16:00;101840.0;;;11.6;73.5
56594;BME280;42474;51.660;5.824;2023-03-20T12:20:40;101840.0;;;11.8;73.0
56594;BME280;42474;51.660;5.824;2023-03-20T12:25:56;101840.0;;;11.8;72.0
56594;BME280;42474;51.660;5.824;2023-03-20T12:30:44;101830.0;;;11.8;72.0
56594;BME280;42474;51.660;5.824;2023-03-20T12:35:37;101840.0;;;11.9;72.5
56594;BME280;42474;51.660;5.824;2023-03-20T12:40:58;101820.0;;;12.1;72.5
56594;BME280;42474;51.660;5.824;2023-03-20T12:45:37;101820.0;;;12.1;72.0
56594;BME280;42474;51.660;5.824;2023-03-20T12:51:09;101820.0;;;12.0;71.5
56594;BME280;42474;51.660;5.824;2023-03-20T12:56:46;101820.0;;;11.9;71.5
56594;BME280;42474;51.660;5.824;2023-03-20T13:01:19;101810.0;;;11.9;72.0
56594;BME280;42474;51.660;5.824;2023-03-20T13:06:42;101810.0;;;12.0;72.0
56594;BME280;42474;51.660;5.824;2023-03-20T13:10:45;101800.0;;;12.0;72.0
56594;BME280;42474;51.660;5.824;2023-03-20T13:16:20;101800.0;;;12.1;72.0
56594;BME280;42474;51.660;5.824;2023-03-20T13:20:43;101800.0;;;12.2;71.5
56594;BME280;42474;51.660;5.824;2023-03-20T13:26:02;101790.0;;;12.1;71.0
56594;BME280;42474;51.660;5.824;2023-03-20T13:30:55;101790.0;;;12.0;71.0
56594;BME280;42474;51.660;5.824;2023-03-20T13:36:06;101800.0;;;11.9;71.0
56594;BME280;42474;51.660;5.824;2023-03-20T13:40:40;101780.0;;;11.9;71.5
56594;BME280;42474;51.660;5.824;2023-03-20T13:45:36;101770.0;;;11.9;71.5
56594;BME280;42474;51.660;5.824;2023-03-20T13:50:52;101770.0;;;11.9;71.5
56594;BME280;42474;51.660;5.824;2023-03-20T13:56:02;101770.0;;;11.8;71.5
56594;BME280;42474;51.660;5.824;2023-03-20T14:01:16;101760.0;;;11.8;71.5
56594;BME280;42474;51.660;5.824;2023-03-20T14:05:39;101760.0;;;11.8;72.0
56594;BME280;42474;51.660;5.824;2023-03-20T14:10:37;101750.0;;;11.9;72.0
56594;BME280;42474;51.660;5.824;2023-03-20T14:15:36;101750.0;;;12.0;72.0
56594;BME280;42474;51.660;5.824;2023-03-20T14:20:37;101750.0;;;11.8;72.0
56594;BME280;42474;51.660;5.824;2023-03-20T14:25:42;101750.0;;;11.7;72.5
56594;BME280;42474;51.660;5.824;2023-03-20T14:30:46;101740.0;;;11.7;72.5
56594;BME280;42474;51.660;5.824;2023-03-20T14:35:36;101740.0;;;11.6;72.5
56594;BME280;42474;51.660;5.824;2023-03-20T14:40:51;101730.0;;;11.5;73.0
56594;BME280;42474;51.660;5.824;2023-03-20T14:45:50;101730.0;;;11.5;73.0
56594;BME280;42474;51.660;5.824;2023-03-20T14:50:38;101710.0;;;11.6;73.0
56594;BME280;42474;51.660;5.824;2023-03-20T14:55:51;101720.0;;;11.6;73.0
56594;BME280;42474;51.660;5.824;2023-03-20T15:00:44;101710.0;;;11.5;73.0
56594;BME280;42474;51.660;5.824;2023-03-20T15:05:36;101710.0;;;11.5;73.5
56594;BME280;42474;51.660;5.824;2023-03-20T15:10:37;101720.0;;;11.5;73.5
56594;BME280;42474;51.660;5.824;2023-03-20T15:15:34;101710.0;;;11.4;73.5
56594;BME280;42474;51.660;5.824;2023-03-20T15:20:35;101710.0;;;11.3;73.5
56594;BME280;42474;51.660;5.824;2023-03-20T15:30:38;101710.0;;;11.3;73.5
56594;BME280;42474;51.660;5.824;2023-03-20T15:35:34;101710.0;;;11.3;74.0
56594;BME280;42474;51.660;5.824;2023-03-20T15:40:39;101710.0;;;11.3;73.5
56594;BME280;42474;51.660;5.824;2023-03-20T15:45:34;101710.0;;;11.3;74.0
56594;BME280;42474;51.660;5.824;2023-03-20T15:50:37;101700.0;;;11.2;74.0
56594;BME280;42474;51.660;5.824;2023-03-20T15:55:34;101690.0;;;11.2;74.0
56594;BME280;42474;51.660;5.824;2023-03-20T16:00:41;101690.0;;;11.3;74.0
56594;BME280;42474;51.660;5.824;2023-03-20T16:05:34;101690.0;;;11.2;74.0
56594;BME280;42474;51.660;5.824;2023-03-20T16:10:34;101680.0;;;11.3;74.0
56594;BME280;42474;51.660;5.824;2023-03-20T16:15:34;101690.0;;;11.3;74.0
56594;BME280;42474;51.660;5.824;2023-03-20T16:20:38;101680.0;;;11.3;74.0
56594;BME280;42474;51.660;5.824;2023-03-20T16:25:35;101680.0;;;11.3;74.0
56594;BME280;42474;51.660;5.824;2023-03-20T16:30:34;101680.0;;;11.3;74.0
56594;BME280;42474;51.660;5.824;2023-03-20T16:35:46;101690.0;;;11.3;74.0
56594;BME280;42474;51.660;5.824;2023-03-20T16:40:36;101680.0;;;11.4;74.0
56594;BME280;42474;51.660;5.824;2023-03-20T16:45:34;101680.0;;;11.4;73.5
56594;BME280;42474;51.660;5.824;2023-03-20T16:50:37;101690.0;;;11.4;73.5
56594;BME280;42474;51.660;5.824;2023-03-20T16:55:36;101690.0;;;11.5;73.5
56594;BME280;42474;51.660;5.824;2023-03-20T17:00:50;101690.0;;;11.5;73.0
56594;BME280;42474;51.660;5.824;2023-03-20T17:05:48;101680.0;;;11.5;73.0
56594;BME280;42474;51.660;5.824;2023-03-20T17:10:35;101680.0;;;11.5;73.0
56594;BME280;42474;51.660;5.824;2023-03-20T17:15:34;101670.0;;;11.5;72.5
56594;BME280;42474;51.660;5.824;2023-03-20T17:20:34;101680.0;;;11.4;72.5
56594;BME280;42474;51.660;5.824;2023-03-20T17:25:34;101670.0;;;11.4;72.5
56594;BME280;42474;51.660;5.824;2023-03-20T17:30:34;101680.0;;;11.4;72.5
56594;BME280;42474;51.660;5.824;2023-03-20T17:35:34;101680.0;;;11.4;72.5
56594;BME280;42474;51.660;5.824;2023-03-20T17:40:34;101690.0;;;11.4;72.5
56594;BME280;42474;51.660;5.824;2023-03-20T17:45:34;101690.0;;;11.3;72.5
56594;BME280;42474;51.660;5.824;2023-03-20T17:50:34;101680.0;;;11.3;73.0
56594;BME280;42474;51.660;5.824;2023-03-20T17:55:34;101690.0;;;11.3;73.0
56594;BME280;42474;51.660;5.824;2023-03-20T18:00:34;101690.0;;;11.3;73.0
56594;BME280;42474;51.660;5.824;2023-03-20T18:05:34;101690.0;;;11.3;73.0
56594;BME280;42474;51.660;5.824;2023-03-20T18:10:34;101690.0;;;11.3;73.0
56594;BME280;42474;51.660;5.824;2023-03-20T18:15:34;101690.0;;;11.3;73.5
56594;BME280;42474;51.660;5.824;2023-03-20T18:20:37;101690.0;;;11.3;73.5
56594;BME280;42474;51.660;5.824;2023-03-20T18:25:34;101690.0;;;11.3;73.5
56594;BME280;42474;51.660;5.824;2023-03-20T18:30:37;101690.0;;;11.3;73.5
56594;BME280;42474;51.660;5.824;2023-03-20T18:35:35;101690.0;;;11.3;73.5
56594;BME280;42474;51.660;5.824;2023-03-20T18:40:35;101690.0;;;11.3;74.0
56594;BME280;42474;51.660;5.824;2023-03-20T18:45:34;101690.0;;;11.3;74.0
56594;BME280;42474;51.660;5.824;2023-03-20T18:50:36;101680.0;;;11.3;74.0
56594;BME280;42474;51.660;5.824;2023-03-20T18:55:35;101690.0;;;11.3;74.0
56594;BME280;42474;51.660;5.824;2023-03-20T19:00:36;101680.0;;;11.2;74.5
56594;BME280;42474;51.660;5.824;2023-03-20T19:05:34;101690.0;;;11.2;74.0
56594;BME280;42474;51.660;5.824;2023-03-20T19:10:36;101690.0;;;11.3;74.5
56594;BME280;42474;51.660;5.824;2023-03-20T19:20:36;101680.0;;;11.3;74.5
56594;BME280;42474;51.660;5.824;2023-03-20T19:25:35;101680.0;;;11.3;74.5
56594;BME280;42474;51.660;5.824;2023-03-20T19:30:36;101680.0;;;11.3;74.5
56594;BME280;42474;51.660;5.824;2023-03-20T19:35:35;101680.0;;;11.3;74.5
56594;BME280;42474;51.660;5.824;2023-03-20T19:40:37;101680.0;;;11.3;75.0
56594;BME280;42474;51.660;5.824;2023-03-20T19:45:37;101680.0;;;11.4;75.0
56594;BME280;42474;51.660;5.824;2023-03-20T19:50:35;101670.0;;;11.4;75.0
56594;BME280;42474;51.660;5.824;2023-03-20T19:55:36;101670.0;;;11.4;75.0
56594;BME280;42474;51.660;5.824;2023-03-20T20:00:37;101670.0;;;11.4;75.0
56594;BME280;42474;51.660;5.824;2023-03-20T20:05:36;101670.0;;;11.4;75.0
56594;BME280;42474;51.660;5.824;2023-03-20T20:10:39;101660.0;;;11.4;75.0
56594;BME280;42474;51.660;5.824;2023-03-20T20:15:34;101660.0;;;11.4;75.0
56594;BME280;42474;51.660;5.824;2023-03-20T20:20:34;101660.0;;;11.4;75.0
56594;BME280;42474;51.660;5.824;2023-03-20T20:25:35;101660.0;;;11.4;75.0
56594;BME280;42474;51.660;5.824;2023-03-20T20:30:34;101650.0;;;11.4;75.0
56594;BME280;42474;51.660;5.824;2023-03-20T20:35:34;101660.0;;;11.4;75.5
56594;BME280;42474;51.660;5.824;2023-03-20T20:40:34;101660.0;;;11.4;75.5
56594;BME280;42474;51.660;5.824;2023-03-20T20:45:35;101660.0;;;11.4;75.5
56594;BME280;42474;51.660;5.824;2023-03-20T20:50:35;101660.0;;;11.4;75.5
56594;BME280;42474;51.660;5.824;2023-03-20T20:55:34;101660.0;;;11.4;75.5
56594;BME280;42474;51.660;5.824;2023-03-20T21:00:34;101650.0;;;11.4;76.0
56594;BME280;42474;51.660;5.824;2023-03-20T21:05:34;101640.0;;;11.4;76.0
56594;BME280;42474;51.660;5.824;2023-03-20T21:10:34;101650.0;;;11.4;76.0
56594;BME280;42474;51.660;5.824;2023-03-20T21:15:34;101650.0;;;11.5;76.0
56594;BME280;42474;51.660;5.824;2023-03-20T21:20:34;101650.0;;;11.5;76.5
56594;BME280;42474;51.660;5.824;2023-03-20T21:25:34;101640.0;;;11.5;76.5
56594;BME280;42474;51.660;5.824;2023-03-20T21:30:35;101650.0;;;11.5;76.5
56594;BME280;42474;51.660;5.824;2023-03-20T21:35:34;101650.0;;;11.5;76.5
56594;BME280;42474;51.660;5.824;2023-03-20T21:40:34;101650.0;;;11.5;76.5
56594;BME280;42474;51.660;5.824;2023-03-20T21:45:34;101650.0;;;11.5;76.5
56594;BME280;42474;51.660;5.824;2023-03-20T21:50:34;101650.0;;;11.6;76.5
56594;BME280;42474;51.660;5.824;2023-03-20T21:55:34;101650.0;;;11.6;76.5
56594;BME280;42474;51.660;5.824;2023-03-20T22:00:34;101660.0;;;11.5;76.5
56594;BME280;42474;51.660;5.824;2023-03-20T22:05:35;101650.0;;;11.6;76.5
56594;BME280;42474;51.660;5.824;2023-03-20T22:10:35;101650.0;;;11.5;76.5
56594;BME280;42474;51.660;5.824;2023-03-20T22:15:34;101660.0;;;11.5;76.5
56594;BME280;42474;51.660;5.824;2023-03-20T22:20:35;101650.0;;;11.5;76.5
56594;BME280;42474;51.660;5.824;2023-03-20T22:25:35;101650.0;;;11.5;76.5
56594;BME280;42474;51.660;5.824;2023-03-20T22:30:36;101660.0;;;11.5;76.5
56594;BME280;42474;51.660;5.824;2023-03-20T22:35:34;101650.0;;;11.6;76.5
56594;BME280;42474;51.660;5.824;2023-03-20T22:40:36;101650.0;;;11.6;76.5
56594;BME280;42474;51.660;5.824;2023-03-20T22:45:35;101650.0;;;11.6;76.5
56594;BME280;42474;51.660;5.824;2023-03-20T22:50:34;101650.0;;;11.5;77.0
56594;BME280;42474;51.660;5.824;2023-03-20T22:55:34;101640.0;;;11.5;77.0
56594;BME280;42474;51.660;5.824;2023-03-20T23:00:35;101630.0;;;11.5;77.0
56594;BME280;42474;51.660;5.824;2023-03-20T23:05:35;101640.0;;;11.5;77.0
56594;BME280;42474;51.660;5.824;2023-03-20T23:10:35;101640.0;;;11.5;77.0
56594;BME280;42474;51.660;5.824;2023-03-20T23:15:35;101650.0;;;11.5;77.0
56594;BME280;42474;51.660;5.824;2023-03-20T23:20:35;101640.0;;;11.5;77.5
56594;BME280;42474;51.660;5.824;2023-03-20T23:25:34;101630.0;;;11.5;77.5
56594;BME280;42474;51.660;5.824;2023-03-20T23:30:35;101640.0;;;11.5;77.5
56594;BME280;42474;51.660;5.824;2023-03-20T23:35:34;101640.0;;;11.4;78.0
56594;BME280;42474;51.660;5.824;2023-03-20T23:40:34;101630.0;;;11.4;78.0
56594;BME280;42474;51.660;5.824;2023-03-20T23:45:35;101630.0;;;11.4;78.5
56594;BME280;42474;51.660;5.824;2023-03-20T23:50:35;101640.0;;;11.3;78.5
56594;BME280;42474;51.660;5.824;2023-03-20T23:55:34;101630.0;;;11.3;79.0
